Tafton, Arkansas
Current Conditions -  °F | °C
As of 6:53 AM on Tuesday 21 Oct 2014 (Local Time) from KLIT Reporting Station
Clear Clear  
Wind Chill: 54°   Ceiling: Unl
Heat Index: 54°   Visibility: 10mi
Dew Point: 51°   Wind: 5mph
Humidity: 90%   Direction: 250°WSW
Pressure: 30.08"   Gusts: NA
Location:  34.6196°N, 92.2211°W
Report Text: KLIT 211153Z 25004KT 10SM CLR 12/11 A3008 RMK AO2 SLP188 T01220106 10139 20111 53010
Loading
Personal Weather Stations






























Interactive Weather Map
Tropical Storm Tracking
New forecast layout! Learn more

10-Day Weather Forecast

Advertisements
Track Severe Weather on mobile